createdAt,value
2022-12-03T00:01:35.145Z,81.89
2022-12-03T00:04:05.988Z,81.68
2022-12-03T00:06:38.272Z,81.75
2022-12-03T00:09:08.696Z,81.75
2022-12-03T00:11:40.756Z,81.79
2022-12-03T00:14:41.297Z,81.71
2022-12-03T00:17:16.569Z,81.68
2022-12-03T00:19:48.748Z,81.73
2022-12-03T00:22:21.158Z,81.78
2022-12-03T00:24:53.758Z,81.85
2022-12-03T00:27:26.447Z,81.71
2022-12-03T00:29:56.990Z,81.78
2022-12-03T00:32:29.106Z,81.77
2022-12-03T00:34:59.485Z,81.70
2022-12-03T00:37:31.775Z,81.89
2022-12-03T00:40:04.283Z,82.02
2022-12-03T00:42:36.400Z,81.96
2022-12-03T00:45:10.393Z,81.98
2022-12-03T00:47:42.637Z,82.04
2022-12-03T00:50:13.634Z,82.09
2022-12-03T00:52:45.646Z,81.97
2022-12-03T00:55:18.308Z,82.08
2022-12-03T00:57:50.453Z,82.04
2022-12-03T01:00:24.689Z,82.20
2022-12-03T01:02:57.464Z,82.16
2022-12-03T01:05:29.658Z,82.20
2022-12-03T01:08:02.007Z,82.21
2022-12-03T01:10:34.183Z,82.25
2022-12-03T01:13:04.796Z,82.21
2022-12-03T01:15:37.014Z,82.47
2022-12-03T01:18:09.417Z,82.54
2022-12-03T01:20:39.928Z,82.57
2022-12-03T01:23:12.078Z,82.35
2022-12-03T01:25:44.963Z,82.47
2022-12-03T01:28:15.423Z,82.52
2022-12-03T01:31:05.212Z,82.66
2022-12-03T01:33:37.335Z,82.78
2022-12-03T01:36:08.118Z,82.72
2022-12-03T01:38:40.208Z,82.65
2022-12-03T01:41:12.392Z,82.72
2022-12-03T01:43:44.800Z,82.58
2022-12-03T01:46:21.145Z,82.52
2022-12-03T01:48:56.042Z,82.54
2022-12-03T01:51:28.226Z,82.64
2022-12-03T01:53:59.199Z,82.70
2022-12-03T01:56:31.246Z,82.53
2022-12-03T01:59:01.817Z,82.64
2022-12-03T02:01:33.951Z,82.70
2022-12-03T02:04:04.606Z,82.70
2022-12-03T02:06:37.008Z,82.63
2022-12-03T02:09:08.728Z,82.73
2022-12-03T02:11:45.600Z,82.77
2022-12-03T02:14:21.125Z,82.76
2022-12-03T02:16:53.259Z,82.82
2022-12-03T02:19:26.380Z,82.77
2022-12-03T02:22:06.521Z,82.77
2022-12-03T02:24:47.825Z,82.90
2022-12-03T02:27:19.832Z,82.76
2022-12-03T02:29:52.389Z,82.90
2022-12-03T02:32:25.022Z,82.91
2022-12-03T02:34:57.457Z,83.11
2022-12-03T02:37:30.773Z,83.22
2022-12-03T02:40:05.596Z,83.20
2022-12-03T02:42:37.915Z,83.13
2022-12-03T02:45:16.313Z,83.22
2022-12-03T02:47:50.947Z,83.18
2022-12-03T02:50:27.458Z,83.27
2022-12-03T02:53:02.592Z,83.28
2022-12-03T02:55:37.394Z,83.35
2022-12-03T02:58:10.829Z,83.40
2022-12-03T03:00:43.789Z,83.39
2022-12-03T03:03:17.920Z,83.40
2022-12-03T03:05:52.130Z,83.33
2022-12-03T03:08:26.219Z,83.42
2022-12-03T03:11:01.074Z,83.33
2022-12-03T03:13:35.081Z,83.45
2022-12-03T03:16:09.114Z,83.52
2022-12-03T03:18:41.514Z,83.43
2022-12-03T03:21:14.823Z,83.40
2022-12-03T03:23:46.876Z,83.50
2022-12-03T03:26:17.569Z,83.52
2022-12-03T03:28:52.319Z,83.71
2022-12-03T03:31:26.349Z,83.76
2022-12-03T03:33:58.585Z,83.67
2022-12-03T03:36:29.087Z,83.62
2022-12-03T03:39:01.233Z,83.75
2022-12-03T03:41:33.926Z,83.93
2022-12-03T03:44:07.819Z,83.94
2022-12-03T03:46:41.136Z,83.93
2022-12-03T03:49:13.599Z,84.02
2022-12-03T03:51:45.853Z,84.17
2022-12-03T03:54:16.574Z,84.16
2022-12-03T03:56:48.841Z,84.21
2022-12-03T03:59:21.059Z,84.45
2022-12-03T04:01:51.566Z,84.41
2022-12-03T04:04:26.814Z,84.48
2022-12-03T04:06:59.793Z,84.68
2022-12-03T04:09:31.853Z,84.51
2022-12-03T04:12:19.954Z,84.65
2022-12-03T04:14:52.364Z,84.88
2022-12-03T04:17:24.663Z,84.94
2022-12-03T04:19:56.868Z,84.91
2022-12-03T04:22:40.982Z,85.03
2022-12-03T04:25:30.585Z,85.13
2022-12-03T04:28:20.307Z,85.10
2022-12-03T04:30:52.444Z,85.32
2022-12-03T04:33:40.611Z,85.35
2022-12-03T04:36:13.170Z,85.35
2022-12-03T04:38:46.039Z,85.43
2022-12-03T04:41:18.200Z,85.54
2022-12-03T04:44:04.449Z,85.56
2022-12-03T04:46:36.574Z,85.67
2022-12-03T04:49:07.301Z,85.75
2022-12-03T04:51:39.410Z,85.71
2022-12-03T04:54:09.844Z,85.75
2022-12-03T04:56:42.160Z,85.77
2022-12-03T04:59:16.754Z,85.86
2022-12-03T05:01:49.101Z,85.88
2022-12-03T05:04:21.262Z,86.06
2022-12-03T05:06:53.391Z,85.92
2022-12-03T05:09:25.801Z,85.87
2022-12-03T05:11:57.910Z,85.80
2022-12-03T05:14:29.844Z,85.86
2022-12-03T05:17:02.139Z,85.95
2022-12-03T05:19:51.839Z,85.88
2022-12-03T05:22:23.975Z,86.04
2022-12-03T05:24:56.335Z,85.96
2022-12-03T05:27:28.694Z,85.99
2022-12-03T05:30:01.023Z,85.83
2022-12-03T05:32:33.457Z,85.77
2022-12-03T05:35:03.937Z,85.89
2022-12-03T05:37:36.149Z,85.87
2022-12-03T05:40:10.878Z,86.10
2022-12-03T05:42:56.795Z,85.84
2022-12-03T05:45:30.732Z,85.82
2022-12-03T05:48:03.591Z,85.88
2022-12-03T05:50:38.510Z,85.90
2022-12-03T05:53:20.172Z,85.76
2022-12-03T05:55:52.248Z,85.59
2022-12-03T05:58:24.640Z,85.65
2022-12-03T06:00:56.734Z,85.63
2022-12-03T06:03:28.892Z,85.75
2022-12-03T06:06:01.964Z,85.80
2022-12-03T06:08:34.120Z,85.78
2022-12-03T06:11:06.396Z,85.81
2022-12-03T06:13:38.384Z,85.84
2022-12-03T06:16:10.675Z,85.68
2022-12-03T06:18:42.749Z,85.85
2022-12-03T06:21:15.139Z,85.92
2022-12-03T06:23:45.619Z,85.94
2022-12-03T06:26:18.009Z,85.66
2022-12-03T06:28:50.420Z,85.78
2022-12-03T06:31:23.283Z,86.00
2022-12-03T06:33:55.520Z,85.96
2022-12-03T06:36:28.538Z,85.96
2022-12-03T06:39:00.541Z,86.11
2022-12-03T06:41:32.712Z,86.16
2022-12-03T06:44:03.185Z,85.96
2022-12-03T06:46:35.638Z,86.05
2022-12-03T06:49:09.408Z,86.12
2022-12-03T06:51:41.623Z,86.19
2022-12-03T06:54:12.019Z,86.03
2022-12-03T06:56:45.601Z,85.87
2022-12-03T06:59:17.779Z,86.19
2022-12-03T07:01:49.987Z,86.18
2022-12-03T07:04:22.125Z,86.14
2022-12-03T07:06:54.170Z,86.18
2022-12-03T07:09:26.455Z,86.09
2022-12-03T07:11:58.627Z,86.14
2022-12-03T07:14:30.609Z,86.01
2022-12-03T07:17:02.671Z,86.08
2022-12-03T07:19:34.716Z,86.14
2022-12-03T07:22:05.792Z,86.07
2022-12-03T07:24:37.906Z,85.94
2022-12-03T07:27:08.381Z,85.77
2022-12-03T07:29:40.468Z,85.84
2022-12-03T07:32:11.028Z,86.12
2022-12-03T07:34:43.178Z,86.27
2022-12-03T07:37:14.054Z,86.03
2022-12-03T07:39:46.229Z,86.13
2022-12-03T07:42:18.372Z,86.19
2022-12-03T07:44:48.858Z,86.29
2022-12-03T07:47:20.967Z,86.54
2022-12-03T07:49:51.468Z,86.39
2022-12-03T07:52:23.640Z,86.47
2022-12-03T07:54:54.260Z,86.47
2022-12-03T07:57:26.703Z,86.48
2022-12-03T07:59:58.978Z,86.76
2022-12-03T08:02:31.057Z,86.98
2022-12-03T08:05:03.367Z,86.94
2022-12-03T08:07:37.012Z,86.93
2022-12-03T08:10:10.768Z,86.90
2022-12-03T08:12:42.938Z,86.98
2022-12-03T08:15:15.225Z,86.92
2022-12-03T08:17:48.749Z,86.84
2022-12-03T08:20:22.103Z,86.88
2022-12-03T08:22:55.153Z,86.75
2022-12-03T08:25:29.748Z,86.58
2022-12-03T08:28:12.112Z,86.77
2022-12-03T08:30:43.137Z,86.67
2022-12-03T08:33:23.164Z,86.76
2022-12-03T08:35:55.191Z,86.76
2022-12-03T08:38:26.099Z,86.68
2022-12-03T08:40:58.247Z,86.73
2022-12-03T08:43:36.717Z,86.74
2022-12-03T08:46:17.406Z,86.61
2022-12-03T08:48:49.862Z,86.67
2022-12-03T08:51:25.446Z,86.76
2022-12-03T08:54:04.812Z,86.71
2022-12-03T08:56:39.244Z,86.35
2022-12-03T08:59:25.740Z,86.40
2022-12-03T09:01:59.602Z,86.12
2022-12-03T09:04:38.140Z,86.37
2022-12-03T09:07:10.516Z,86.40
2022-12-03T09:09:42.943Z,86.40
2022-12-03T09:12:15.014Z,86.22
2022-12-03T09:14:48.537Z,86.19
2022-12-03T09:17:21.418Z,86.28
2022-12-03T09:19:53.954Z,86.29
2022-12-03T09:22:25.931Z,86.33
2022-12-03T09:24:58.932Z,86.41
2022-12-03T09:27:31.260Z,86.44
2022-12-03T09:30:03.423Z,86.13
2022-12-03T09:32:33.913Z,85.85
2022-12-03T09:35:10.634Z,85.86
2022-12-03T09:37:42.748Z,85.85
2022-12-03T09:40:16.546Z,85.84
2022-12-03T09:42:49.169Z,85.69
2022-12-03T09:45:21.464Z,85.81
2022-12-03T09:47:51.961Z,85.89
2022-12-03T09:50:26.439Z,86.02
2022-12-03T09:53:03.505Z,85.80
2022-12-03T09:55:35.973Z,85.60
2022-12-03T09:58:13.541Z,85.47
2022-12-03T10:00:48.811Z,85.59
2022-12-03T10:03:29.542Z,85.67
2022-12-03T10:06:02.029Z,85.52
2022-12-03T10:08:35.096Z,85.36
2022-12-03T10:11:07.616Z,85.57
2022-12-03T10:13:40.018Z,85.73
2022-12-03T10:16:15.525Z,85.60
2022-12-03T10:18:51.234Z,85.39
2022-12-03T10:21:27.344Z,85.26
2022-12-03T10:24:26.624Z,84.97
2022-12-03T10:29:57.492Z,85.25
2022-12-03T10:32:41.333Z,85.48
2022-12-03T10:35:15.814Z,85.41
2022-12-03T10:38:02.442Z,85.28
2022-12-03T10:40:36.556Z,84.96
2022-12-03T10:43:22.714Z,84.66
2022-12-03T10:46:13.270Z,84.89
2022-12-03T10:48:45.656Z,84.73
2022-12-03T10:51:21.353Z,84.87
2022-12-03T10:53:54.468Z,84.89
2022-12-03T10:56:50.418Z,84.73
2022-12-03T10:59:25.570Z,84.54
2022-12-03T11:04:48.292Z,84.23
2022-12-03T11:07:22.575Z,84.31
2022-12-03T11:09:58.939Z,84.43
2022-12-03T11:12:34.719Z,84.46
2022-12-03T11:15:15.761Z,84.37
2022-12-03T11:17:50.353Z,84.41
2022-12-03T11:21:05.543Z,84.22
2022-12-03T11:24:04.923Z,83.50
2022-12-03T11:27:18.206Z,83.30
2022-12-03T11:29:56.951Z,83.65
2022-12-03T11:33:09.190Z,83.77
2022-12-03T11:36:27.795Z,83.90
2022-12-03T11:39:11.158Z,83.84
2022-12-03T11:42:03.557Z,83.57
2022-12-03T11:44:36.981Z,83.57
2022-12-03T11:47:17.271Z,83.56
2022-12-03T11:49:52.678Z,83.37
2022-12-03T11:52:29.035Z,83.37
2022-12-03T11:55:06.944Z,83.45
2022-12-03T11:57:43.526Z,83.22
2022-12-03T12:00:27.185Z,83.34
2022-12-03T12:03:00.435Z,83.27
2022-12-03T12:05:35.776Z,83.18
2022-12-03T12:08:32.191Z,83.14
2022-12-03T12:11:29.872Z,83.24
2022-12-03T12:14:03.051Z,83.23
2022-12-03T12:16:50.546Z,83.07
2022-12-03T12:19:44.102Z,83.15
2022-12-03T12:22:18.778Z,83.00
2022-12-03T12:24:53.437Z,83.00
2022-12-03T12:27:32.452Z,83.03
2022-12-03T12:30:08.110Z,82.98
2022-12-03T12:32:47.336Z,82.52
2022-12-03T12:35:22.422Z,82.68
2022-12-03T12:38:00.197Z,82.86
2022-12-03T12:40:34.290Z,82.98
2022-12-03T12:43:18.889Z,82.99
2022-12-03T12:45:56.474Z,83.00
2022-12-03T12:48:32.376Z,83.12
2022-12-03T12:51:13.813Z,83.04
2022-12-03T12:53:46.133Z,82.95
2022-12-03T12:56:30.179Z,83.13
2022-12-03T12:59:13.457Z,83.34
2022-12-03T13:01:46.755Z,83.20
2022-12-03T13:04:22.155Z,83.23
2022-12-03T13:06:56.991Z,83.18
2022-12-03T13:09:30.991Z,83.06
2022-12-03T13:12:04.568Z,83.32
2022-12-03T13:14:38.720Z,83.29
2022-12-03T13:17:18.360Z,83.22
2022-12-03T13:19:58.233Z,83.06
2022-12-03T13:22:36.180Z,83.03
2022-12-03T13:25:58.867Z,83.34
2022-12-03T13:28:26.785Z,83.58
2022-12-03T13:31:02.854Z,83.61
2022-12-03T13:33:36.122Z,83.56
2022-12-03T13:36:15.156Z,83.72
2022-12-03T13:38:47.999Z,83.78
2022-12-03T13:41:39.921Z,83.83
2022-12-03T13:44:20.851Z,83.90
2022-12-03T13:46:53.170Z,83.84
2022-12-03T13:49:25.857Z,83.96
2022-12-03T13:51:58.206Z,83.97
2022-12-03T13:54:30.390Z,84.05
2022-12-03T13:57:05.199Z,84.11
2022-12-03T13:59:37.392Z,84.15
2022-12-03T14:02:10.159Z,84.01
2022-12-03T14:04:42.697Z,84.08
2022-12-03T14:07:15.271Z,84.22
2022-12-03T14:09:45.930Z,84.39
2022-12-03T14:12:26.840Z,84.50
2022-12-03T14:14:58.966Z,84.66
2022-12-03T14:17:31.558Z,84.79
2022-12-03T14:20:04.243Z,85.13
2022-12-03T14:22:38.140Z,85.13
2022-12-03T14:25:11.321Z,85.18
2022-12-03T14:27:43.463Z,85.25
2022-12-03T14:30:16.772Z,85.31
2022-12-03T14:32:48.949Z,85.34
2022-12-03T14:35:19.416Z,85.34
2022-12-03T14:37:52.388Z,85.29
2022-12-03T14:40:27.266Z,85.23
2022-12-03T14:42:59.500Z,85.28
2022-12-03T14:45:33.149Z,85.38
2022-12-03T14:48:05.551Z,85.50
2022-12-03T14:50:38.021Z,85.72
2022-12-03T14:53:08.783Z,85.88
2022-12-03T14:55:41.545Z,85.95
2022-12-03T14:58:13.598Z,85.99
2022-12-03T15:00:44.151Z,86.00
2022-12-03T15:03:17.716Z,86.04
2022-12-03T15:05:50.883Z,86.20
2022-12-03T15:08:23.886Z,86.07
2022-12-03T15:10:57.577Z,86.00
2022-12-03T15:13:30.885Z,85.81
2022-12-03T15:16:04.296Z,85.82
2022-12-03T15:18:36.515Z,85.85
2022-12-03T15:21:08.827Z,85.93
2022-12-03T15:23:41.355Z,86.02
2022-12-03T15:26:13.487Z,86.12
2022-12-03T15:28:48.103Z,86.14
2022-12-03T15:31:20.689Z,86.15
2022-12-03T15:33:52.992Z,86.09
2022-12-03T15:36:23.392Z,86.15
2022-12-03T15:38:56.516Z,86.22
2022-12-03T15:41:30.136Z,86.08
2022-12-03T15:44:02.925Z,86.16
2022-12-03T15:46:35.326Z,86.20
2022-12-03T15:49:07.484Z,86.28
2022-12-03T15:54:47.033Z,86.07
2022-12-03T15:57:19.193Z,86.16
2022-12-03T15:59:51.582Z,86.38
2022-12-03T16:02:24.342Z,86.34
2022-12-03T16:04:57.326Z,86.30
2022-12-03T16:07:30.408Z,86.30
2022-12-03T16:10:03.717Z,86.31
2022-12-03T16:12:35.858Z,86.27
2022-12-03T16:15:07.278Z,86.36
2022-12-03T16:17:39.285Z,86.48
2022-12-03T16:20:12.671Z,86.62
2022-12-03T16:22:44.709Z,86.62
2022-12-03T16:25:17.373Z,86.72
2022-12-03T16:27:49.480Z,86.71
2022-12-03T16:30:21.788Z,86.63
2022-12-03T16:32:53.803Z,86.47
2022-12-03T16:35:26.704Z,86.45
2022-12-03T16:37:59.488Z,86.33
2022-12-03T16:40:32.928Z,86.23
2022-12-03T16:43:05.154Z,86.47
2022-12-03T16:45:54.050Z,86.46
2022-12-03T16:48:27.157Z,86.45
2022-12-03T16:51:03.124Z,86.35
2022-12-03T16:53:35.353Z,86.38
2022-12-03T16:56:07.893Z,86.23
2022-12-03T16:58:40.072Z,86.10
2022-12-03T17:01:12.752Z,86.14
2022-12-03T17:03:45.055Z,86.17
2022-12-03T17:06:15.579Z,86.04
2022-12-03T17:08:49.875Z,86.08
2022-12-03T17:11:22.310Z,86.17
2022-12-03T17:13:54.241Z,86.09
2022-12-03T17:16:26.530Z,86.09
2022-12-03T17:18:58.857Z,86.18
2022-12-03T17:21:34.862Z,86.43
2022-12-03T17:24:07.983Z,86.23
2022-12-03T17:26:41.918Z,86.11
2022-12-03T17:29:14.286Z,86.22
2022-12-03T17:31:46.629Z,86.12
2022-12-03T17:34:18.705Z,86.05
2022-12-03T17:36:50.899Z,86.12
2022-12-03T17:39:23.202Z,86.10
2022-12-03T17:41:53.691Z,86.07
2022-12-03T17:44:25.864Z,86.20
2022-12-03T17:46:59.458Z,86.36
2022-12-03T17:49:32.052Z,86.37
2022-12-03T17:52:04.439Z,86.33
2022-12-03T17:54:55.561Z,86.40
2022-12-03T17:57:29.665Z,86.48
2022-12-03T18:00:01.736Z,86.53
2022-12-03T18:02:44.044Z,86.63
2022-12-03T18:05:16.300Z,86.57
2022-12-03T18:07:46.867Z,86.57
2022-12-03T18:10:19.593Z,86.67
2022-12-03T18:12:51.691Z,86.81
2022-12-03T18:15:23.741Z,86.77
2022-12-03T18:17:56.069Z,86.85
2022-12-03T18:20:28.182Z,86.95
2022-12-03T18:23:02.197Z,86.83
2022-12-03T18:25:34.738Z,86.83
2022-12-03T18:28:07.473Z,86.93
2022-12-03T18:30:39.594Z,86.90
2022-12-03T18:33:10.145Z,87.00
2022-12-03T18:35:42.948Z,87.06
2022-12-03T18:38:18.502Z,87.27
2022-12-03T18:40:54.855Z,87.35
2022-12-03T18:43:29.265Z,87.34
2022-12-03T18:46:04.588Z,87.22
2022-12-03T18:48:37.444Z,87.34
2022-12-03T18:51:17.268Z,87.57
2022-12-03T18:53:50.685Z,87.66
2022-12-03T18:56:23.473Z,87.66
2022-12-03T18:58:56.322Z,87.56
2022-12-03T19:01:30.425Z,87.67
2022-12-03T19:04:03.364Z,87.68
2022-12-03T19:06:36.053Z,87.74
2022-12-03T19:09:09.147Z,87.78
2022-12-03T19:11:41.908Z,87.75
2022-12-03T19:14:14.420Z,87.75
2022-12-03T19:16:47.178Z,87.90
2022-12-03T19:19:20.018Z,88.00
2022-12-03T19:21:52.088Z,88.00
2022-12-03T19:24:25.422Z,87.85
2022-12-03T19:26:58.548Z,87.85
2022-12-03T19:29:31.494Z,87.85
2022-12-03T19:32:04.389Z,87.92
2022-12-03T19:34:36.977Z,87.88
2022-12-03T19:37:09.440Z,87.89
2022-12-03T19:39:42.525Z,87.72
2022-12-03T19:42:15.854Z,87.78
2022-12-03T19:44:48.155Z,87.79
2022-12-03T19:47:21.151Z,87.88
2022-12-03T19:49:55.755Z,87.77
2022-12-03T19:52:28.148Z,87.80
2022-12-03T19:55:01.174Z,87.72
2022-12-03T19:57:33.238Z,87.79
2022-12-03T20:00:06.815Z,87.93
2022-12-03T20:02:44.380Z,88.00
2022-12-03T20:05:17.024Z,87.96
2022-12-03T20:07:49.090Z,87.97
2022-12-03T20:10:19.661Z,87.86
2022-12-03T20:12:51.647Z,87.83
2022-12-03T20:15:23.881Z,88.09
2022-12-03T20:17:55.230Z,88.12
2022-12-03T20:20:28.764Z,88.05
2022-12-03T20:23:01.846Z,88.05
2022-12-03T20:25:37.136Z,88.05
2022-12-03T20:28:10.775Z,88.18
2022-12-03T20:30:44.663Z,88.19
2022-12-03T20:33:17.415Z,88.18
2022-12-03T20:35:54.698Z,88.10
2022-12-03T20:38:29.004Z,88.30
2022-12-03T20:41:04.361Z,88.22
2022-12-03T20:43:37.902Z,88.40
2022-12-03T20:46:13.708Z,88.39
2022-12-03T20:48:47.105Z,88.32
2022-12-03T20:51:22.018Z,88.39
2022-12-03T20:53:54.853Z,88.49
2022-12-03T20:56:29.329Z,88.42
2022-12-03T20:59:05.407Z,88.36
2022-12-03T21:01:39.065Z,88.33
2022-12-03T21:04:14.746Z,88.31
2022-12-03T21:06:47.546Z,88.42
2022-12-03T21:09:19.674Z,88.30
2022-12-03T21:11:51.770Z,88.32
2022-12-03T21:14:22.387Z,88.20
2022-12-03T21:17:11.962Z,88.17
2022-12-03T21:19:44.348Z,88.24
2022-12-03T21:22:17.744Z,88.27
2022-12-03T21:24:49.867Z,88.21
2022-12-03T21:27:22.121Z,88.11
2022-12-03T21:29:55.275Z,88.05
2022-12-03T21:32:27.645Z,87.90
2022-12-03T21:34:59.790Z,87.99
2022-12-03T21:37:57.112Z,88.03
2022-12-03T21:40:29.320Z,87.93
2022-12-03T21:43:00.076Z,87.89
2022-12-03T21:45:32.441Z,87.94
2022-12-03T21:48:03.052Z,87.96
2022-12-03T21:50:35.525Z,88.16
2022-12-03T21:53:07.965Z,88.10
2022-12-03T21:55:41.483Z,88.08
2022-12-03T21:58:13.533Z,88.03
2022-12-03T22:00:44.116Z,87.83
2022-12-03T22:03:16.335Z,87.78
2022-12-03T22:05:46.726Z,87.74
2022-12-03T22:08:19.238Z,87.96
2022-12-03T22:10:51.360Z,87.97
2022-12-03T22:13:23.746Z,87.75
2022-12-03T22:15:55.802Z,87.60
2022-12-03T22:18:27.913Z,87.55
2022-12-03T22:20:59.958Z,87.68
2022-12-03T22:23:32.574Z,87.67
2022-12-03T22:26:07.151Z,87.89
2022-12-03T22:28:39.428Z,87.98
2022-12-03T22:31:12.257Z,87.86
2022-12-03T22:33:48.103Z,87.81
2022-12-03T22:36:21.985Z,87.91
2022-12-03T22:38:54.256Z,87.88
2022-12-03T22:41:26.317Z,87.62
2022-12-03T22:43:58.472Z,87.44
2022-12-03T22:46:29.108Z,87.55
2022-12-03T22:49:06.717Z,87.72
2022-12-03T22:51:39.472Z,87.86
2022-12-03T22:54:11.563Z,87.85
2022-12-03T22:56:43.721Z,87.98
2022-12-03T22:59:14.349Z,87.63
2022-12-03T23:01:46.411Z,87.69
2022-12-03T23:04:18.670Z,87.69
2022-12-03T23:06:50.949Z,87.91
2022-12-03T23:09:23.239Z,87.92
2022-12-03T23:11:55.323Z,87.99
2022-12-03T23:14:25.969Z,88.07
2022-12-03T23:16:58.279Z,87.99
2022-12-03T23:19:30.533Z,87.76
2022-12-03T23:22:01.013Z,87.71
2022-12-03T23:24:33.225Z,87.92
2022-12-03T23:27:03.696Z,88.13
2022-12-03T23:29:36.975Z,88.15
2022-12-03T23:32:09.057Z,88.17
2022-12-03T23:34:41.135Z,88.13
2022-12-03T23:37:11.564Z,88.28
2022-12-03T23:39:43.702Z,88.26
2022-12-03T23:42:14.360Z,88.39
2022-12-03T23:44:46.408Z,88.46
2022-12-03T23:47:17.091Z,88.33
2022-12-03T23:49:49.169Z,88.47
2022-12-03T23:52:21.324Z,88.38
2022-12-03T23:54:51.802Z,88.55
2022-12-03T23:57:23.939Z,88.69
2022-12-03T23:59:54.796Z,88.79
